sensor_id;sensor_type;location;lat;lon;timestamp;temperature;humidity
6357;DHT22;3211;53.452;-2.264;2023-02-26T00:00:16;4.70;81.80
6357;DHT22;3211;53.452;-2.264;2023-02-26T00:02:46;4.60;80.50
6357;DHT22;3211;53.452;-2.264;2023-02-26T00:05:14;4.60;80.80
6357;DHT22;3211;53.452;-2.264;2023-02-26T00:07:41;4.60;81.20
6357;DHT22;3211;53.452;-2.264;2023-02-26T00:10:11;4.60;81.60
6357;DHT22;3211;53.452;-2.264;2023-02-26T00:12:39;4.50;82.30
6357;DHT22;3211;53.452;-2.264;2023-02-26T00:15:07;4.40;82.70
6357;DHT22;3211;53.452;-2.264;2023-02-26T00:17:42;4.40;84.20
6357;DHT22;3211;53.452;-2.264;2023-02-26T00:20:12;4.20;84.70
6357;DHT22;3211;53.452;-2.264;2023-02-26T00:22:42;4.20;89.00
6357;DHT22;3211;53.452;-2.264;2023-02-26T00:25:11;4.10;90.30
6357;DHT22;3211;53.452;-2.264;2023-02-26T00:27:39;4.10;91.40
6357;DHT22;3211;53.452;-2.264;2023-02-26T00:30:09;4.10;91.20
6357;DHT22;3211;53.452;-2.264;2023-02-26T00:32:37;4.10;90.90
6357;DHT22;3211;53.452;-2.264;2023-02-26T00:35:08;4.10;91.60
6357;DHT22;3211;53.452;-2.264;2023-02-26T00:38:01;4.10;91.90
6357;DHT22;3211;53.452;-2.264;2023-02-26T00:40:35;4.10;90.90
6357;DHT22;3211;53.452;-2.264;2023-02-26T00:43:05;4.10;90.90
6357;DHT22;3211;53.452;-2.264;2023-02-26T00:45:32;4.10;90.80
6357;DHT22;3211;53.452;-2.264;2023-02-26T00:48:15;4.10;91.00
6357;DHT22;3211;53.452;-2.264;2023-02-26T00:50:53;4.10;90.60
6357;DHT22;3211;53.452;-2.264;2023-02-26T00:53:27;4.10;91.40
6357;DHT22;3211;53.452;-2.264;2023-02-26T00:55:56;4.00;91.10
6357;DHT22;3211;53.452;-2.264;2023-02-26T00:58:22;4.10;91.80
6357;DHT22;3211;53.452;-2.264;2023-02-26T01:00:49;3.90;92.10
6357;DHT22;3211;53.452;-2.264;2023-02-26T01:03:17;4.00;93.20
6357;DHT22;3211;53.452;-2.264;2023-02-26T01:05:44;3.90;93.20
6357;DHT22;3211;53.452;-2.264;2023-02-26T01:08:16;3.90;94.00
6357;DHT22;3211;53.452;-2.264;2023-02-26T01:10:44;3.80;94.30
6357;DHT22;3211;53.452;-2.264;2023-02-26T01:13:12;3.80;95.70
6357;DHT22;3211;53.452;-2.264;2023-02-26T01:15:43;3.70;95.50
6357;DHT22;3211;53.452;-2.264;2023-02-26T01:18:15;3.70;96.30
6357;DHT22;3211;53.452;-2.264;2023-02-26T01:20:46;3.60;97.10
6357;DHT22;3211;53.452;-2.264;2023-02-26T01:23:17;3.70;98.80
6357;DHT22;3211;53.452;-2.264;2023-02-26T01:25:48;3.70;99.10
6357;DHT22;3211;53.452;-2.264;2023-02-26T01:28:16;3.80;99.60
6357;DHT22;3211;53.452;-2.264;2023-02-26T01:30:43;3.80;98.20
6357;DHT22;3211;53.452;-2.264;2023-02-26T01:33:17;3.70;98.80
6357;DHT22;3211;53.452;-2.264;2023-02-26T01:35:49;3.70;99.30
6357;DHT22;3211;53.452;-2.264;2023-02-26T01:38:23;3.80;99.50
6357;DHT22;3211;53.452;-2.264;2023-02-26T01:41:24;3.90;98.90
6357;DHT22;3211;53.452;-2.264;2023-02-26T01:43:59;3.90;98.50
6357;DHT22;3211;53.452;-2.264;2023-02-26T01:46:33;4.00;98.10
6357;DHT22;3211;53.452;-2.264;2023-02-26T01:49:03;4.10;97.40
6357;DHT22;3211;53.452;-2.264;2023-02-26T01:51:45;4.10;98.40
6357;DHT22;3211;53.452;-2.264;2023-02-26T01:54:16;4.10;98.30
6357;DHT22;3211;53.452;-2.264;2023-02-26T01:56:44;4.10;98.40
6357;DHT22;3211;53.452;-2.264;2023-02-26T01:59:15;4.00;98.70
6357;DHT22;3211;53.452;-2.264;2023-02-26T02:01:45;4.10;99.90
6357;DHT22;3211;53.452;-2.264;2023-02-26T02:04:13;4.10;98.80
6357;DHT22;3211;53.452;-2.264;2023-02-26T02:06:41;4.10;99.10
6357;DHT22;3211;53.452;-2.264;2023-02-26T02:09:09;4.20;99.10
6357;DHT22;3211;53.452;-2.264;2023-02-26T02:11:48;4.10;97.80
6357;DHT22;3211;53.452;-2.264;2023-02-26T02:14:22;4.20;98.00
6357;DHT22;3211;53.452;-2.264;2023-02-26T02:16:56;4.20;96.80
6357;DHT22;3211;53.452;-2.264;2023-02-26T02:19:42;4.20;96.60
6357;DHT22;3211;53.452;-2.264;2023-02-26T02:22:30;4.20;96.50
6357;DHT22;3211;53.452;-2.264;2023-02-26T02:25:11;4.20;95.70
6357;DHT22;3211;53.452;-2.264;2023-02-26T02:27:49;4.30;95.20
6357;DHT22;3211;53.452;-2.264;2023-02-26T02:30:29;4.30;94.90
6357;DHT22;3211;53.452;-2.264;2023-02-26T02:33:05;4.40;95.00
6357;DHT22;3211;53.452;-2.264;2023-02-26T02:35:41;4.40;93.10
6357;DHT22;3211;53.452;-2.264;2023-02-26T02:38:13;4.40;92.00
6357;DHT22;3211;53.452;-2.264;2023-02-26T02:40:44;4.50;93.40
6357;DHT22;3211;53.452;-2.264;2023-02-26T02:43:14;4.40;93.60
6357;DHT22;3211;53.452;-2.264;2023-02-26T02:45:43;4.40;93.30
6357;DHT22;3211;53.452;-2.264;2023-02-26T02:48:16;4.40;93.50
6357;DHT22;3211;53.452;-2.264;2023-02-26T02:50:47;4.40;92.40
6357;DHT22;3211;53.452;-2.264;2023-02-26T02:53:18;4.50;92.20
6357;DHT22;3211;53.452;-2.264;2023-02-26T02:55:51;4.50;90.80
6357;DHT22;3211;53.452;-2.264;2023-02-26T02:58:21;4.50;90.60
6357;DHT22;3211;53.452;-2.264;2023-02-26T03:00:54;4.40;91.70
6357;DHT22;3211;53.452;-2.264;2023-02-26T03:03:29;4.40;91.50
6357;DHT22;3211;53.452;-2.264;2023-02-26T03:05:58;4.40;90.40
6357;DHT22;3211;53.452;-2.264;2023-02-26T03:08:28;4.50;90.30
6357;DHT22;3211;53.452;-2.264;2023-02-26T03:10:56;4.40;90.30
6357;DHT22;3211;53.452;-2.264;2023-02-26T03:13:24;4.40;88.80
6357;DHT22;3211;53.452;-2.264;2023-02-26T03:16:03;4.30;91.40
6357;DHT22;3211;53.452;-2.264;2023-02-26T03:18:45;4.20;91.80
6357;DHT22;3211;53.452;-2.264;2023-02-26T03:21:19;4.30;92.00
6357;DHT22;3211;53.452;-2.264;2023-02-26T03:23:53;4.30;92.10
6357;DHT22;3211;53.452;-2.264;2023-02-26T03:26:28;4.40;92.50
6357;DHT22;3211;53.452;-2.264;2023-02-26T03:29:03;4.50;90.40
6357;DHT22;3211;53.452;-2.264;2023-02-26T03:31:34;4.50;90.10
6357;DHT22;3211;53.452;-2.264;2023-02-26T03:34:06;4.50;90.80
6357;DHT22;3211;53.452;-2.264;2023-02-26T03:36:38;4.40;90.00
6357;DHT22;3211;53.452;-2.264;2023-02-26T03:39:10;4.40;91.50
6357;DHT22;3211;53.452;-2.264;2023-02-26T03:41:43;4.50;91.70
6357;DHT22;3211;53.452;-2.264;2023-02-26T03:44:15;4.50;89.70
6357;DHT22;3211;53.452;-2.264;2023-02-26T03:46:47;4.60;90.10
6357;DHT22;3211;53.452;-2.264;2023-02-26T03:49:19;4.50;91.70
6357;DHT22;3211;53.452;-2.264;2023-02-26T03:51:48;4.40;91.40
6357;DHT22;3211;53.452;-2.264;2023-02-26T03:54:19;4.40;91.40
6357;DHT22;3211;53.452;-2.264;2023-02-26T03:56:47;4.30;90.70
6357;DHT22;3211;53.452;-2.264;2023-02-26T03:59:15;4.30;92.80
6357;DHT22;3211;53.452;-2.264;2023-02-26T04:01:46;4.20;93.70
6357;DHT22;3211;53.452;-2.264;2023-02-26T04:04:18;4.20;94.20
6357;DHT22;3211;53.452;-2.264;2023-02-26T04:06:47;4.20;94.20
6357;DHT22;3211;53.452;-2.264;2023-02-26T04:09:18;4.20;94.60
6357;DHT22;3211;53.452;-2.264;2023-02-26T04:11:46;4.10;95.00
6357;DHT22;3211;53.452;-2.264;2023-02-26T04:14:14;4.00;94.80
6357;DHT22;3211;53.452;-2.264;2023-02-26T04:16:43;4.10;96.80
6357;DHT22;3211;53.452;-2.264;2023-02-26T04:19:10;4.20;98.30
6357;DHT22;3211;53.452;-2.264;2023-02-26T04:21:38;4.30;97.80
6357;DHT22;3211;53.452;-2.264;2023-02-26T04:24:05;4.30;97.20
6357;DHT22;3211;53.452;-2.264;2023-02-26T04:26:32;4.40;97.80
6357;DHT22;3211;53.452;-2.264;2023-02-26T04:28:59;4.50;97.00
6357;DHT22;3211;53.452;-2.264;2023-02-26T04:31:26;4.50;94.70
6357;DHT22;3211;53.452;-2.264;2023-02-26T04:33:53;4.50;94.90
6357;DHT22;3211;53.452;-2.264;2023-02-26T04:36:20;4.50;95.30
6357;DHT22;3211;53.452;-2.264;2023-02-26T04:38:48;4.60;95.80
6357;DHT22;3211;53.452;-2.264;2023-02-26T04:41:15;4.60;94.80
6357;DHT22;3211;53.452;-2.264;2023-02-26T04:43:42;4.60;95.50
6357;DHT22;3211;53.452;-2.264;2023-02-26T04:46:09;4.60;97.00
6357;DHT22;3211;53.452;-2.264;2023-02-26T04:48:36;4.60;96.50
6357;DHT22;3211;53.452;-2.264;2023-02-26T04:51:04;4.70;96.10
6357;DHT22;3211;53.452;-2.264;2023-02-26T04:53:31;4.70;96.60
6357;DHT22;3211;53.452;-2.264;2023-02-26T04:55:59;4.60;95.90
6357;DHT22;3211;53.452;-2.264;2023-02-26T04:58:26;4.50;97.00
6357;DHT22;3211;53.452;-2.264;2023-02-26T05:00:53;4.40;97.70
6357;DHT22;3211;53.452;-2.264;2023-02-26T05:03:20;4.40;99.90
6357;DHT22;3211;53.452;-2.264;2023-02-26T05:05:47;4.50;99.70
6357;DHT22;3211;53.452;-2.264;2023-02-26T05:08:14;4.50;99.60
6357;DHT22;3211;53.452;-2.264;2023-02-26T05:10:42;4.40;99.20
6357;DHT22;3211;53.452;-2.264;2023-02-26T05:13:10;4.30;99.80
6357;DHT22;3211;53.452;-2.264;2023-02-26T05:15:37;4.20;99.90
6357;DHT22;3211;53.452;-2.264;2023-02-26T05:18:04;4.20;99.90
6357;DHT22;3211;53.452;-2.264;2023-02-26T05:20:31;4.20;99.90
6357;DHT22;3211;53.452;-2.264;2023-02-26T05:22:58;4.00;99.90
6357;DHT22;3211;53.452;-2.264;2023-02-26T05:25:25;4.00;99.90
6357;DHT22;3211;53.452;-2.264;2023-02-26T05:27:52;4.10;99.90
6357;DHT22;3211;53.452;-2.264;2023-02-26T05:30:20;4.00;99.90
6357;DHT22;3211;53.452;-2.264;2023-02-26T05:32:47;3.90;99.90
6357;DHT22;3211;53.452;-2.264;2023-02-26T05:35:15;4.00;99.90
6357;DHT22;3211;53.452;-2.264;2023-02-26T05:37:41;4.00;99.90
6357;DHT22;3211;53.452;-2.264;2023-02-26T05:40:10;4.10;99.90
6357;DHT22;3211;53.452;-2.264;2023-02-26T05:42:38;4.20;99.90
6357;DHT22;3211;53.452;-2.264;2023-02-26T05:45:06;4.30;99.90
6357;DHT22;3211;53.452;-2.264;2023-02-26T05:47:35;4.40;99.90
6357;DHT22;3211;53.452;-2.264;2023-02-26T05:50:02;4.40;99.90
6357;DHT22;3211;53.452;-2.264;2023-02-26T05:52:29;4.50;99.90
6357;DHT22;3211;53.452;-2.264;2023-02-26T05:54:56;4.50;99.90
6357;DHT22;3211;53.452;-2.264;2023-02-26T05:57:23;4.40;99.90
6357;DHT22;3211;53.452;-2.264;2023-02-26T05:59:50;4.40;99.90
6357;DHT22;3211;53.452;-2.264;2023-02-26T06:02:17;4.30;99.90
6357;DHT22;3211;53.452;-2.264;2023-02-26T06:04:45;4.30;99.90
6357;DHT22;3211;53.452;-2.264;2023-02-26T06:07:12;4.20;99.90
6357;DHT22;3211;53.452;-2.264;2023-02-26T06:09:39;4.10;99.90
6357;DHT22;3211;53.452;-2.264;2023-02-26T06:12:07;4.20;99.90
6357;DHT22;3211;53.452;-2.264;2023-02-26T06:14:34;4.20;99.90
6357;DHT22;3211;53.452;-2.264;2023-02-26T06:17:02;4.20;99.90
6357;DHT22;3211;53.452;-2.264;2023-02-26T06:19:29;4.20;99.90
6357;DHT22;3211;53.452;-2.264;2023-02-26T06:21:57;4.30;99.90
6357;DHT22;3211;53.452;-2.264;2023-02-26T06:24:24;4.40;99.90
6357;DHT22;3211;53.452;-2.264;2023-02-26T06:26:51;4.50;99.90
6357;DHT22;3211;53.452;-2.264;2023-02-26T06:29:18;4.50;99.90
6357;DHT22;3211;53.452;-2.264;2023-02-26T06:31:46;4.50;99.90
6357;DHT22;3211;53.452;-2.264;2023-02-26T06:34:13;4.60;99.90
6357;DHT22;3211;53.452;-2.264;2023-02-26T06:36:40;4.60;99.90
6357;DHT22;3211;53.452;-2.264;2023-02-26T06:39:08;4.60;99.60
6357;DHT22;3211;53.452;-2.264;2023-02-26T06:41:37;4.70;99.80
6357;DHT22;3211;53.452;-2.264;2023-02-26T06:44:04;4.60;99.90
6357;DHT22;3211;53.452;-2.264;2023-02-26T06:46:31;4.60;99.90
6357;DHT22;3211;53.452;-2.264;2023-02-26T06:48:58;4.70;99.90
6357;DHT22;3211;53.452;-2.264;2023-02-26T06:51:25;4.70;99.90
6357;DHT22;3211;53.452;-2.264;2023-02-26T06:53:52;4.70;99.90
6357;DHT22;3211;53.452;-2.264;2023-02-26T06:56:20;4.70;99.90
6357;DHT22;3211;53.452;-2.264;2023-02-26T06:58:47;4.80;99.90
6357;DHT22;3211;53.452;-2.264;2023-02-26T07:01:14;4.70;99.70
6357;DHT22;3211;53.452;-2.264;2023-02-26T07:03:41;4.80;98.70
6357;DHT22;3211;53.452;-2.264;2023-02-26T07:06:10;4.70;98.20
6357;DHT22;3211;53.452;-2.264;2023-02-26T07:08:37;4.80;98.90
6357;DHT22;3211;53.452;-2.264;2023-02-26T07:11:04;4.80;99.80
6357;DHT22;3211;53.452;-2.264;2023-02-26T07:13:34;4.80;99.90
6357;DHT22;3211;53.452;-2.264;2023-02-26T07:16:02;4.70;99.60
6357;DHT22;3211;53.452;-2.264;2023-02-26T07:18:32;4.60;99.80
6357;DHT22;3211;53.452;-2.264;2023-02-26T07:20:59;4.60;99.90
6357;DHT22;3211;53.452;-2.264;2023-02-26T07:23:25;4.50;99.90
6357;DHT22;3211;53.452;-2.264;2023-02-26T07:25:52;4.50;99.90
6357;DHT22;3211;53.452;-2.264;2023-02-26T07:28:19;4.50;99.90
6357;DHT22;3211;53.452;-2.264;2023-02-26T07:30:48;4.60;99.90
6357;DHT22;3211;53.452;-2.264;2023-02-26T07:33:15;4.50;99.90
6357;DHT22;3211;53.452;-2.264;2023-02-26T07:35:42;4.60;99.90
6357;DHT22;3211;53.452;-2.264;2023-02-26T07:38:09;4.70;99.90
6357;DHT22;3211;53.452;-2.264;2023-02-26T07:40:35;4.70;99.90
6357;DHT22;3211;53.452;-2.264;2023-02-26T07:43:03;4.70;99.90
6357;DHT22;3211;53.452;-2.264;2023-02-26T07:45:29;4.80;99.90
6357;DHT22;3211;53.452;-2.264;2023-02-26T07:47:58;4.80;99.90
6357;DHT22;3211;53.452;-2.264;2023-02-26T07:50:25;4.90;99.90
6357;DHT22;3211;53.452;-2.264;2023-02-26T07:52:52;4.90;99.90
6357;DHT22;3211;53.452;-2.264;2023-02-26T07:55:19;5.00;99.90
6357;DHT22;3211;53.452;-2.264;2023-02-26T07:57:46;5.00;99.90
6357;DHT22;3211;53.452;-2.264;2023-02-26T08:00:14;5.10;99.90
6357;DHT22;3211;53.452;-2.264;2023-02-26T08:02:41;5.10;99.90
6357;DHT22;3211;53.452;-2.264;2023-02-26T08:05:10;5.10;99.90
6357;DHT22;3211;53.452;-2.264;2023-02-26T08:07:37;5.30;99.80
6357;DHT22;3211;53.452;-2.264;2023-02-26T08:10:04;5.30;99.40
6357;DHT22;3211;53.452;-2.264;2023-02-26T08:12:31;5.40;99.40
6357;DHT22;3211;53.452;-2.264;2023-02-26T08:14:58;5.40;98.90
6357;DHT22;3211;53.452;-2.264;2023-02-26T08:17:25;5.40;99.10
6357;DHT22;3211;53.452;-2.264;2023-02-26T08:19:52;5.40;99.40
6357;DHT22;3211;53.452;-2.264;2023-02-26T08:22:21;5.40;99.60
6357;DHT22;3211;53.452;-2.264;2023-02-26T08:24:48;5.40;99.50
6357;DHT22;3211;53.452;-2.264;2023-02-26T08:27:16;5.40;99.40
6357;DHT22;3211;53.452;-2.264;2023-02-26T08:29:43;5.40;99.50
6357;DHT22;3211;53.452;-2.264;2023-02-26T08:32:11;5.40;98.70
6357;DHT22;3211;53.452;-2.264;2023-02-26T08:34:38;5.40;99.60
6357;DHT22;3211;53.452;-2.264;2023-02-26T08:37:05;5.50;98.40
6357;DHT22;3211;53.452;-2.264;2023-02-26T08:39:35;5.50;98.30
6357;DHT22;3211;53.452;-2.264;2023-02-26T08:42:04;5.40;97.80
6357;DHT22;3211;53.452;-2.264;2023-02-26T08:44:31;5.40;98.00
6357;DHT22;3211;53.452;-2.264;2023-02-26T08:46:58;5.40;98.60
6357;DHT22;3211;53.452;-2.264;2023-02-26T08:49:25;5.50;97.80
6357;DHT22;3211;53.452;-2.264;2023-02-26T08:51:52;5.50;98.10
6357;DHT22;3211;53.452;-2.264;2023-02-26T08:54:19;5.70;98.10
6357;DHT22;3211;53.452;-2.264;2023-02-26T08:56:48;5.70;96.90
6357;DHT22;3211;53.452;-2.264;2023-02-26T08:59:15;5.80;95.20
6357;DHT22;3211;53.452;-2.264;2023-02-26T09:01:42;5.80;94.40
6357;DHT22;3211;53.452;-2.264;2023-02-26T09:04:09;5.90;92.80
6357;DHT22;3211;53.452;-2.264;2023-02-26T09:06:36;5.90;94.00
6357;DHT22;3211;53.452;-2.264;2023-02-26T09:09:03;6.00;92.60
6357;DHT22;3211;53.452;-2.264;2023-02-26T09:11:30;6.00;92.90
6357;DHT22;3211;53.452;-2.264;2023-02-26T09:13:58;6.10;94.00
6357;DHT22;3211;53.452;-2.264;2023-02-26T09:16:28;6.10;93.20
6357;DHT22;3211;53.452;-2.264;2023-02-26T09:18:55;6.20;91.50
6357;DHT22;3211;53.452;-2.264;2023-02-26T09:21:23;6.30;92.20
6357;DHT22;3211;53.452;-2.264;2023-02-26T09:23:49;6.20;91.60
6357;DHT22;3211;53.452;-2.264;2023-02-26T09:26:16;6.30;91.20
6357;DHT22;3211;53.452;-2.264;2023-02-26T09:28:43;6.30;90.50
6357;DHT22;3211;53.452;-2.264;2023-02-26T09:31:12;6.30;86.50
6357;DHT22;3211;53.452;-2.264;2023-02-26T09:33:39;6.40;83.90
6357;DHT22;3211;53.452;-2.264;2023-02-26T09:36:06;6.50;84.00
6357;DHT22;3211;53.452;-2.264;2023-02-26T09:38:33;6.60;82.50
6357;DHT22;3211;53.452;-2.264;2023-02-26T09:41:03;6.60;83.40
6357;DHT22;3211;53.452;-2.264;2023-02-26T09:43:52;6.60;84.30
6357;DHT22;3211;53.452;-2.264;2023-02-26T09:46:29;6.60;80.60
6357;DHT22;3211;53.452;-2.264;2023-02-26T09:49:05;6.60;80.00
6357;DHT22;3211;53.452;-2.264;2023-02-26T09:51:35;6.60;84.60
6357;DHT22;3211;53.452;-2.264;2023-02-26T09:54:14;6.60;85.10
6357;DHT22;3211;53.452;-2.264;2023-02-26T09:56:42;6.60;77.40
6357;DHT22;3211;53.452;-2.264;2023-02-26T09:59:10;6.70;78.50
6357;DHT22;3211;53.452;-2.264;2023-02-26T10:01:44;6.80;77.60
6357;DHT22;3211;53.452;-2.264;2023-02-26T10:04:18;6.90;75.30
6357;DHT22;3211;53.452;-2.264;2023-02-26T10:07:00;7.00;73.20
6357;DHT22;3211;53.452;-2.264;2023-02-26T10:09:37;7.20;72.50
6357;DHT22;3211;53.452;-2.264;2023-02-26T10:12:08;7.30;64.70
6357;DHT22;3211;53.452;-2.264;2023-02-26T10:14:41;7.30;56.80
6357;DHT22;3211;53.452;-2.264;2023-02-26T10:17:17;7.50;52.70
6357;DHT22;3211;53.452;-2.264;2023-02-26T10:19:49;7.60;50.50
6357;DHT22;3211;53.452;-2.264;2023-02-26T10:22:23;7.60;47.20
6357;DHT22;3211;53.452;-2.264;2023-02-26T10:24:57;7.60;47.60
6357;DHT22;3211;53.452;-2.264;2023-02-26T10:27:39;7.80;48.60
6357;DHT22;3211;53.452;-2.264;2023-02-26T10:30:14;7.90;46.00
6357;DHT22;3211;53.452;-2.264;2023-02-26T10:32:51;7.90;43.80
6357;DHT22;3211;53.452;-2.264;2023-02-26T10:35:22;8.10;38.60
6357;DHT22;3211;53.452;-2.264;2023-02-26T10:37:55;8.20;36.80
6357;DHT22;3211;53.452;-2.264;2023-02-26T10:40:27;8.10;37.60
6357;DHT22;3211;53.452;-2.264;2023-02-26T10:42:58;8.00;37.70
6357;DHT22;3211;53.452;-2.264;2023-02-26T10:45:36;8.00;37.20
6357;DHT22;3211;53.452;-2.264;2023-02-26T10:48:19;7.80;32.50
6357;DHT22;3211;53.452;-2.264;2023-02-26T10:50:51;7.90;35.90
6357;DHT22;3211;53.452;-2.264;2023-02-26T10:53:19;7.90;33.50
6357;DHT22;3211;53.452;-2.264;2023-02-26T10:55:50;7.90;33.00
6357;DHT22;3211;53.452;-2.264;2023-02-26T10:58:21;8.20;33.80
6357;DHT22;3211;53.452;-2.264;2023-02-26T11:00:51;8.50;28.10
6357;DHT22;3211;53.452;-2.264;2023-02-26T11:03:22;8.70;25.30
6357;DHT22;3211;53.452;-2.264;2023-02-26T11:05:52;8.70;22.10
6357;DHT22;3211;53.452;-2.264;2023-02-26T11:08:25;8.60;22.80
6357;DHT22;3211;53.452;-2.264;2023-02-26T11:10:54;8.80;23.10
6357;DHT22;3211;53.452;-2.264;2023-02-26T11:13:23;8.60;18.20
6357;DHT22;3211;53.452;-2.264;2023-02-26T11:15:52;8.70;17.70
6357;DHT22;3211;53.452;-2.264;2023-02-26T11:18:23;8.80;16.90
6357;DHT22;3211;53.452;-2.264;2023-02-26T11:20:54;8.80;16.90
6357;DHT22;3211;53.452;-2.264;2023-02-26T11:23:25;8.80;13.60
6357;DHT22;3211;53.452;-2.264;2023-02-26T11:25:56;8.60;14.20
6357;DHT22;3211;53.452;-2.264;2023-02-26T11:28:30;8.40;15.70
6357;DHT22;3211;53.452;-2.264;2023-02-26T11:31:00;8.30;16.70
6357;DHT22;3211;53.452;-2.264;2023-02-26T11:33:35;8.30;15.30
6357;DHT22;3211;53.452;-2.264;2023-02-26T11:36:07;8.20;15.50
6357;DHT22;3211;53.452;-2.264;2023-02-26T11:38:35;8.30;14.60
6357;DHT22;3211;53.452;-2.264;2023-02-26T11:41:04;8.30;16.10
6357;DHT22;3211;53.452;-2.264;2023-02-26T11:43:35;8.20;16.70
6357;DHT22;3211;53.452;-2.264;2023-02-26T11:46:03;8.00;18.40
6357;DHT22;3211;53.452;-2.264;2023-02-26T11:48:38;8.10;20.90
6357;DHT22;3211;53.452;-2.264;2023-02-26T11:51:07;8.20;20.80
6357;DHT22;3211;53.452;-2.264;2023-02-26T11:53:41;8.40;19.70
6357;DHT22;3211;53.452;-2.264;2023-02-26T11:56:11;8.70;19.40
6357;DHT22;3211;53.452;-2.264;2023-02-26T11:58:41;8.90;17.30
6357;DHT22;3211;53.452;-2.264;2023-02-26T12:01:28;9.20;17.50
6357;DHT22;3211;53.452;-2.264;2023-02-26T12:04:19;9.70;15.70
6357;DHT22;3211;53.452;-2.264;2023-02-26T12:07:07;9.90;13.10
6357;DHT22;3211;53.452;-2.264;2023-02-26T12:09:36;9.70;8.60
6357;DHT22;3211;53.452;-2.264;2023-02-26T12:12:20;9.50;8.00
6357;DHT22;3211;53.452;-2.264;2023-02-26T12:15:15;9.40;9.00
6357;DHT22;3211;53.452;-2.264;2023-02-26T12:17:56;9.10;8.60
6357;DHT22;3211;53.452;-2.264;2023-02-26T12:20:32;9.20;7.90
6357;DHT22;3211;53.452;-2.264;2023-02-26T12:23:12;9.10;7.40
6357;DHT22;3211;53.452;-2.264;2023-02-26T12:28:52;9.00;6.70
6357;DHT22;3211;53.452;-2.264;2023-02-26T12:31:52;9.20;7.40
6357;DHT22;3211;53.452;-2.264;2023-02-26T12:34:39;9.50;6.50
6357;DHT22;3211;53.452;-2.264;2023-02-26T12:37:31;10.10;2.70
6357;DHT22;3211;53.452;-2.264;2023-02-26T12:40:12;10.50;1.00
6357;DHT22;3211;53.452;-2.264;2023-02-26T12:42:49;10.00;2.10
6357;DHT22;3211;53.452;-2.264;2023-02-26T12:45:38;9.70;2.20
6357;DHT22;3211;53.452;-2.264;2023-02-26T12:48:43;10.40;1.00
6357;DHT22;3211;53.452;-2.264;2023-02-26T12:51:21;11.10;1.00
6357;DHT22;3211;53.452;-2.264;2023-02-26T12:54:18;11.20;1.00
6357;DHT22;3211;53.452;-2.264;2023-02-26T12:57:16;11.20;1.00
6357;DHT22;3211;53.452;-2.264;2023-02-26T13:00:12;11.40;1.00
6357;DHT22;3211;53.452;-2.264;2023-02-26T13:03:11;11.80;1.00
6357;DHT22;3211;53.452;-2.264;2023-02-26T13:05:56;12.30;1.00
6357;DHT22;3211;53.452;-2.264;2023-02-26T13:08:28;12.00;1.00
6357;DHT22;3211;53.452;-2.264;2023-02-26T13:11:10;11.60;1.00
6357;DHT22;3211;53.452;-2.264;2023-02-26T13:14:01;11.20;1.00
6357;DHT22;3211;53.452;-2.264;2023-02-26T13:16:43;10.40;1.00
6357;DHT22;3211;53.452;-2.264;2023-02-26T13:19:24;10.30;1.00
6357;DHT22;3211;53.452;-2.264;2023-02-26T13:21:57;10.90;1.00
6357;DHT22;3211;53.452;-2.264;2023-02-26T13:24:29;11.50;1.00
6357;DHT22;3211;53.452;-2.264;2023-02-26T13:27:01;11.60;1.00
6357;DHT22;3211;53.452;-2.264;2023-02-26T13:29:33;11.50;1.00
6357;DHT22;3211;53.452;-2.264;2023-02-26T13:32:03;11.60;1.00
6357;DHT22;3211;53.452;-2.264;2023-02-26T13:34:36;11.90;1.00
6357;DHT22;3211;53.452;-2.264;2023-02-26T13:37:05;12.30;1.00
6357;DHT22;3211;53.452;-2.264;2023-02-26T13:39:42;12.50;1.00
6357;DHT22;3211;53.452;-2.264;2023-02-26T13:42:24;12.00;1.00
6357;DHT22;3211;53.452;-2.264;2023-02-26T13:45:02;11.80;1.00
6357;DHT22;3211;53.452;-2.264;2023-02-26T13:47:51;11.50;1.00
6357;DHT22;3211;53.452;-2.264;2023-02-26T13:50:29;11.00;1.00
6357;DHT22;3211;53.452;-2.264;2023-02-26T13:53:02;10.80;1.00
6357;DHT22;3211;53.452;-2.264;2023-02-26T13:55:40;10.40;1.00
6357;DHT22;3211;53.452;-2.264;2023-02-26T13:58:27;10.30;1.00
6357;DHT22;3211;53.452;-2.264;2023-02-26T14:00:58;10.40;1.00
6357;DHT22;3211;53.452;-2.264;2023-02-26T14:03:31;10.00;1.00
6357;DHT22;3211;53.452;-2.264;2023-02-26T14:06:22;10.20;1.00
6357;DHT22;3211;53.452;-2.264;2023-02-26T14:08:53;10.10;1.00
6357;DHT22;3211;53.452;-2.264;2023-02-26T14:11:26;10.10;1.00
6357;DHT22;3211;53.452;-2.264;2023-02-26T14:14:22;10.20;1.00
6357;DHT22;3211;53.452;-2.264;2023-02-26T14:16:53;10.40;1.00
6357;DHT22;3211;53.452;-2.264;2023-02-26T14:19:26;10.40;1.00
6357;DHT22;3211;53.452;-2.264;2023-02-26T14:21:55;10.40;1.00
6357;DHT22;3211;53.452;-2.264;2023-02-26T14:24:35;10.30;1.00
6357;DHT22;3211;53.452;-2.264;2023-02-26T14:27:32;10.00;1.00
6357;DHT22;3211;53.452;-2.264;2023-02-26T14:30:15;9.90;1.90
6357;DHT22;3211;53.452;-2.264;2023-02-26T14:32:48;9.60;5.70
6357;DHT22;3211;53.452;-2.264;2023-02-26T14:35:17;9.50;6.90
6357;DHT22;3211;53.452;-2.264;2023-02-26T14:38:04;9.40;5.20
6357;DHT22;3211;53.452;-2.264;2023-02-26T14:40:37;9.50;4.90
6357;DHT22;3211;53.452;-2.264;2023-02-26T14:43:08;9.40;2.40
6357;DHT22;3211;53.452;-2.264;2023-02-26T14:45:41;9.50;1.10
6357;DHT22;3211;53.452;-2.264;2023-02-26T14:48:13;10.00;1.00
6357;DHT22;3211;53.452;-2.264;2023-02-26T14:50:48;12.20;1.00
6357;DHT22;3211;53.452;-2.264;2023-02-26T14:53:44;14.80;1.00
6357;DHT22;3211;53.452;-2.264;2023-02-26T14:56:20;16.70;1.00
6357;DHT22;3211;53.452;-2.264;2023-02-26T14:59:07;14.80;1.00
6357;DHT22;3211;53.452;-2.264;2023-02-26T15:01:46;13.10;1.00
6357;DHT22;3211;53.452;-2.264;2023-02-26T15:07:47;12.00;1.00
6357;DHT22;3211;53.452;-2.264;2023-02-26T15:10:32;11.30;1.00
6357;DHT22;3211;53.452;-2.264;2023-02-26T15:13:26;10.90;1.00
6357;DHT22;3211;53.452;-2.264;2023-02-26T15:15:57;10.70;1.00
6357;DHT22;3211;53.452;-2.264;2023-02-26T15:21:29;10.40;1.00
6357;DHT22;3211;53.452;-2.264;2023-02-26T15:23:59;10.70;1.00
6357;DHT22;3211;53.452;-2.264;2023-02-26T15:26:28;11.30;1.00
6357;DHT22;3211;53.452;-2.264;2023-02-26T15:28:57;11.70;1.00
6357;DHT22;3211;53.452;-2.264;2023-02-26T15:31:32;10.90;1.00
6357;DHT22;3211;53.452;-2.264;2023-02-26T15:34:01;10.90;1.00
6357;DHT22;3211;53.452;-2.264;2023-02-26T15:36:30;11.10;1.00
6357;DHT22;3211;53.452;-2.264;2023-02-26T15:38:58;11.00;1.00
6357;DHT22;3211;53.452;-2.264;2023-02-26T15:41:27;10.90;1.00
6357;DHT22;3211;53.452;-2.264;2023-02-26T15:43:57;10.70;1.00
6357;DHT22;3211;53.452;-2.264;2023-02-26T15:46:29;10.50;1.00
6357;DHT22;3211;53.452;-2.264;2023-02-26T15:49:01;10.20;1.00
6357;DHT22;3211;53.452;-2.264;2023-02-26T15:51:31;9.90;1.00
6357;DHT22;3211;53.452;-2.264;2023-02-26T15:53:59;9.90;1.00
6357;DHT22;3211;53.452;-2.264;2023-02-26T15:56:29;9.80;1.00
6357;DHT22;3211;53.452;-2.264;2023-02-26T15:58:59;9.70;1.00
6357;DHT22;3211;53.452;-2.264;2023-02-26T16:01:28;9.80;1.00
6357;DHT22;3211;53.452;-2.264;2023-02-26T16:03:57;9.60;1.00
6357;DHT22;3211;53.452;-2.264;2023-02-26T16:06:29;9.40;1.00
6357;DHT22;3211;53.452;-2.264;2023-02-26T16:08:58;9.20;1.00
6357;DHT22;3211;53.452;-2.264;2023-02-26T16:11:27;9.20;1.00
6357;DHT22;3211;53.452;-2.264;2023-02-26T16:13:55;9.30;1.00
6357;DHT22;3211;53.452;-2.264;2023-02-26T16:16:25;9.40;1.00
6357;DHT22;3211;53.452;-2.264;2023-02-26T16:18:54;9.40;1.00
6357;DHT22;3211;53.452;-2.264;2023-02-26T16:21:28;9.40;1.00
6357;DHT22;3211;53.452;-2.264;2023-02-26T16:23:58;9.40;1.00
6357;DHT22;3211;53.452;-2.264;2023-02-26T16:26:29;9.40;1.00
6357;DHT22;3211;53.452;-2.264;2023-02-26T16:29:00;9.30;1.00
6357;DHT22;3211;53.452;-2.264;2023-02-26T16:31:29;9.30;1.00
6357;DHT22;3211;53.452;-2.264;2023-02-26T16:34:00;9.10;1.00
6357;DHT22;3211;53.452;-2.264;2023-02-26T16:36:35;9.20;1.00
6357;DHT22;3211;53.452;-2.264;2023-02-26T16:39:13;9.20;1.00
6357;DHT22;3211;53.452;-2.264;2023-02-26T16:41:46;9.20;1.00